createdAt,value
2017-07-30T00:05:11.037Z,0
2017-07-30T00:15:25.072Z,0
2017-07-30T00:25:39.333Z,0
2017-07-30T00:35:53.773Z,0
2017-07-30T00:46:08.747Z,0
2017-07-30T00:56:24.490Z,0
2017-07-30T01:06:39.954Z,0
2017-07-30T01:16:55.634Z,0
2017-07-30T01:27:10.960Z,0
2017-07-30T01:37:25.804Z,0
2017-07-30T01:47:40.846Z,0
2017-07-30T01:57:55.756Z,0
2017-07-30T02:08:10.896Z,0
2017-07-30T02:18:26.336Z,0
2017-07-30T02:28:40.244Z,0
2017-07-30T02:38:54.231Z,0
2017-07-30T02:49:08.074Z,0
2017-07-30T02:59:22.940Z,0
2017-07-30T03:09:40.145Z,0
2017-07-30T03:19:51.841Z,0
2017-07-30T03:30:05.850Z,0
2017-07-30T03:40:19.718Z,0
2017-07-30T03:50:34.499Z,10
2017-07-30T04:00:49.822Z,10
2017-07-30T04:11:04.676Z,15
2017-07-30T04:21:18.825Z,25
2017-07-30T04:31:34.185Z,20
2017-07-30T04:41:48.906Z,35
2017-07-30T04:52:03.666Z,45
2017-07-30T05:02:19.126Z,90
2017-07-30T05:12:34.487Z,175
2017-07-30T05:22:49.539Z,170
2017-07-30T05:33:04.829Z,180
2017-07-30T05:43:20.193Z,220
2017-07-30T05:53:34.867Z,175
2017-07-30T06:03:49.397Z,245
2017-07-30T06:14:03.486Z,245
2017-07-30T06:24:19.281Z,380
2017-07-30T06:34:33.249Z,915
2017-07-30T06:44:47.732Z,640
2017-07-30T06:55:01.886Z,575
2017-07-30T07:05:17.052Z,475
2017-07-30T07:15:31.973Z,595
2017-07-30T07:25:46.649Z,625
2017-07-30T07:36:00.601Z,945
2017-07-30T07:46:16.633Z,440
2017-07-30T07:56:31.668Z,595
2017-07-30T08:06:46.474Z,750
2017-07-30T08:17:01.927Z,720
2017-07-30T08:27:15.694Z,605
2017-07-30T08:37:31.139Z,1440
2017-07-30T08:47:47.390Z,565
2017-07-30T08:58:00.713Z,545
2017-07-30T09:08:14.675Z,435
2017-07-30T09:18:29.078Z,505
2017-07-30T09:28:43.678Z,905
2017-07-30T09:38:57.594Z,2050
2017-07-30T09:49:12.310Z,965
2017-07-30T09:59:26.412Z,1050
2017-07-30T10:09:41.990Z,1130
2017-07-30T10:19:57.910Z,1020
2017-07-30T10:30:11.334Z,710
2017-07-30T10:40:25.448Z,835
2017-07-30T10:50:40.253Z,1205
2017-07-30T11:00:54.464Z,1515
2017-07-30T11:11:09.975Z,1465
2017-07-30T11:21:24.516Z,1075
2017-07-30T11:31:39.716Z,1265
2017-07-30T11:41:55.187Z,1720
2017-07-30T11:52:10.698Z,2115
2017-07-30T12:02:24.785Z,2060
2017-07-30T12:12:40.633Z,1385
2017-07-30T12:22:55.526Z,1250
2017-07-30T12:33:10.026Z,1440
2017-07-30T12:43:24.437Z,1390
2017-07-30T12:53:40.523Z,1230
2017-07-30T13:03:55.058Z,1275
2017-07-30T13:14:10.907Z,1010
2017-07-30T13:24:25.825Z,2180
2017-07-30T13:34:41.206Z,2180
2017-07-30T13:44:57.047Z,710
2017-07-30T13:55:11.976Z,350
2017-07-30T14:05:26.630Z,1320
2017-07-30T14:15:40.383Z,2180
2017-07-30T14:25:54.483Z,1965
2017-07-30T14:36:09.155Z,515
2017-07-30T14:46:24.038Z,490
2017-07-30T14:56:39.844Z,1560
2017-07-30T15:06:54.139Z,1765
2017-07-30T15:17:08.195Z,1675
2017-07-30T15:27:22.629Z,1590
2017-07-30T15:37:38.058Z,445
2017-07-30T15:47:52.170Z,385
2017-07-30T15:58:06.709Z,550
2017-07-30T16:08:21.409Z,985
2017-07-30T16:18:38.179Z,1125
2017-07-30T16:28:52.032Z,1025
2017-07-30T16:39:06.359Z,985
2017-07-30T16:49:20.784Z,855
2017-07-30T16:59:38.366Z,405
2017-07-30T17:09:51.061Z,450
2017-07-30T17:20:06.484Z,380
2017-07-30T17:30:21.280Z,350
2017-07-30T17:40:34.944Z,295
2017-07-30T17:50:50.118Z,215
2017-07-30T18:01:04.381Z,220
2017-07-30T18:11:19.303Z,160
2017-07-30T18:21:34.575Z,105
2017-07-30T18:31:48.908Z,115
2017-07-30T18:42:03.329Z,85
2017-07-30T18:52:17.898Z,70
2017-07-30T19:02:33.054Z,40
2017-07-30T19:12:47.455Z,20
2017-07-30T19:23:02.286Z,10
2017-07-30T19:33:18.557Z,5
2017-07-30T19:43:31.803Z,0
2017-07-30T19:53:46.378Z,0
2017-07-30T20:04:01.228Z,0
2017-07-30T20:14:14.771Z,0
2017-07-30T20:24:28.865Z,0
2017-07-30T20:34:44.283Z,0
2017-07-30T20:44:58.460Z,0
2017-07-30T20:55:13.454Z,0
2017-07-30T21:05:28.626Z,0
2017-07-30T21:15:44.113Z,0
2017-07-30T21:25:59.226Z,0
2017-07-30T21:36:14.924Z,0
2017-07-30T21:46:29.444Z,0
2017-07-30T21:56:44.277Z,0
2017-07-30T22:06:59.700Z,0
2017-07-30T22:17:14.787Z,0
2017-07-30T22:27:29.476Z,0
2017-07-30T22:37:43.603Z,0
2017-07-30T22:47:57.666Z,0
2017-07-30T22:58:11.778Z,0
2017-07-30T23:08:27.397Z,0
2017-07-30T23:18:43.050Z,0
2017-07-30T23:28:57.549Z,0
2017-07-30T23:39:11.840Z,0
2017-07-30T23:49:27.365Z,0
2017-07-30T23:59:41.921Z,0
